Time,TemperatureF,DewpointF,PressureIn,WindDirection,WindDirectionDegrees,WindSpeedMPH,WindSpeedGustMPH,Humidity,HourlyPrecipIn,Conditions,Clouds,dailyrainin,SoftwareType,DateUTC
2013-07-11 00:02:00,74.6,72.0,29.84,WSW,238,0.0,0.0,92,0.00,,,0.00,weatherlink.com 1.10,2013-07-11 04:02:00,
2013-07-11 00:17:00,74.3,72.0,29.83,WSW,238,0.0,0.0,92,0.00,,,0.00,weatherlink.com 1.10,2013-07-11 04:17:00,
2013-07-11 00:32:00,74.0,72.0,29.82,WSW,238,0.0,0.0,92,0.00,,,0.00,weatherlink.com 1.10,2013-07-11 04:32:00,
2013-07-11 00:47:00,73.7,72.0,29.82,WSW,238,0.0,0.0,93,0.00,,,0.00,weatherlink.com 1.10,2013-07-11 04:47:00,
2013-07-11 01:02:00,73.5,72.0,29.81,WSW,238,0.0,0.0,94,0.00,,,0.00,weatherlink.com 1.10,2013-07-11 05:02:00,
2013-07-11 01:17:00,73.3,72.0,29.81,WSW,238,0.0,0.0,94,0.00,,,0.00,weatherlink.com 1.10,2013-07-11 05:17:00,
2013-07-11 01:32:00,73.2,72.0,29.81,WSW,238,0.0,0.0,95,0.00,,,0.00,weatherlink.com 1.10,2013-07-11 05:32:00,
2013-07-11 01:47:00,73.3,72.0,29.81,WSW,238,0.0,1.0,95,0.00,,,0.00,weatherlink.com 1.10,2013-07-11 05:47:00,
2013-07-11 02:02:00,73.2,72.0,29.82,WSW,238,0.0,0.0,95,0.00,,,0.00,weatherlink.com 1.10,2013-07-11 06:02:00,
2013-07-11 02:17:00,73.1,72.0,29.82,WSW,238,0.0,0.0,95,0.00,,,0.00,weatherlink.com 1.10,2013-07-11 06:17:00,
2013-07-11 02:32:00,73.1,72.0,29.81,SW,217,3.0,5.0,96,0.00,,,0.00,weatherlink.com 1.10,2013-07-11 06:32:00,
2013-07-11 02:47:00,73.1,72.0,29.82,SW,225,1.0,2.0,95,0.00,,,0.00,weatherlink.com 1.10,2013-07-11 06:47:00,
2013-07-11 03:02:00,73.3,72.0,29.82,WSW,243,1.0,6.0,94,0.00,,,0.00,weatherlink.com 1.10,2013-07-11 07:02:00,
2013-07-11 03:17:00,73.4,71.0,29.83,WNW,284,0.0,5.0,93,0.00,,,0.00,weatherlink.com 1.10,2013-07-11 07:17:00,
2013-07-11 03:32:00,73.6,71.0,29.83,WNW,284,2.0,2.0,92,0.00,,,0.00,weatherlink.com 1.10,2013-07-11 07:32:00,
2013-07-11 03:47:00,73.5,71.0,29.82,WNW,284,0.0,3.0,92,0.00,,,0.00,weatherlink.com 1.10,2013-07-11 07:47:00,
2013-07-11 04:02:00,73.4,71.0,29.83,WNW,284,0.0,2.0,91,0.00,,,0.00,weatherlink.com 1.10,2013-07-11 08:02:00,
2013-07-11 04:17:00,73.3,71.0,29.83,WNW,284,0.0,1.0,91,0.00,,,0.00,weatherlink.com 1.10,2013-07-11 08:17:00,
2013-07-11 04:32:00,73.0,70.0,29.82,WNW,284,0.0,0.0,91,0.00,,,0.00,weatherlink.com 1.10,2013-07-11 08:32:00,
2013-07-11 04:47:00,72.6,70.0,29.83,WNW,284,0.0,0.0,92,0.00,,,0.00,weatherlink.com 1.10,2013-07-11 08:47:00,
2013-07-11 05:02:00,72.3,70.0,29.82,WNW,284,0.0,0.0,92,0.00,,,0.00,weatherlink.com 1.10,2013-07-11 09:02:00,
2013-07-11 05:17:00,72.0,70.0,29.82,WNW,284,0.0,0.0,93,0.00,,,0.00,weatherlink.com 1.10,2013-07-11 09:17:00,
2013-07-11 05:32:00,71.8,70.0,29.83,WNW,284,0.0,0.0,94,0.00,,,0.00,weatherlink.com 1.10,2013-07-11 09:32:00,
2013-07-11 05:47:00,71.6,70.0,29.84,WNW,284,0.0,0.0,94,0.00,,,0.00,weatherlink.com 1.10,2013-07-11 09:47:00,
2013-07-11 06:02:00,71.6,70.0,29.84,WNW,284,0.0,1.0,95,0.00,,,0.00,weatherlink.com 1.10,2013-07-11 10:02:00,
2013-07-11 06:17:00,71.5,70.0,29.84,WNW,284,0.0,1.0,96,0.00,,,0.00,weatherlink.com 1.10,2013-07-11 10:17:00,
2013-07-11 06:32:00,71.6,70.0,29.85,WNW,284,0.0,1.0,96,0.00,,,0.00,weatherlink.com 1.10,2013-07-11 10:32:00,
2013-07-11 06:47:00,71.5,70.0,29.85,WNW,284,1.0,3.0,96,0.00,,,0.00,weatherlink.com 1.10,2013-07-11 10:47:00,
2013-07-11 07:02:00,71.5,70.0,29.86,WNW,300,0.0,5.0,95,0.00,,,0.00,weatherlink.com 1.10,2013-07-11 11:02:00,
2013-07-11 07:17:00,71.6,70.0,29.87,WNW,300,0.0,4.0,94,0.00,,,0.00,weatherlink.com 1.10,2013-07-11 11:17:00,
2013-07-11 07:32:00,71.9,70.0,29.87,WNW,300,0.0,2.0,93,0.00,,,0.00,weatherlink.com 1.10,2013-07-11 11:32:00,
2013-07-11 07:48:00,71.8,69.0,29.88,NW,312,0.0,5.0,90,0.00,,,0.00,weatherlink.com 1.10,2013-07-11 11:48:00,
2013-07-11 08:03:00,72.1,69.0,29.88,NW,312,0.0,1.0,90,0.00,,,0.00,weatherlink.com 1.10,2013-07-11 12:03:00,
2013-07-11 08:17:00,72.3,69.0,29.88,NW,312,0.0,3.0,88,0.00,,,0.00,weatherlink.com 1.10,2013-07-11 12:17:00,
2013-07-11 08:32:00,72.4,68.0,29.89,NW,312,0.0,1.0,87,0.00,,,0.00,weatherlink.com 1.10,2013-07-11 12:32:00,
2013-07-11 08:47:00,72.4,68.0,29.89,NW,307,0.0,7.0,86,0.00,,,0.00,weatherlink.com 1.10,2013-07-11 12:47:00,
2013-07-11 09:02:00,72.3,68.0,29.90,NW,309,0.0,5.0,86,0.00,,,0.00,weatherlink.com 1.10,2013-07-11 13:02:00,
2013-07-11 09:17:00,72.6,68.0,29.89,NW,325,0.0,5.0,86,0.00,,,0.00,weatherlink.com 1.10,2013-07-11 13:17:00,
2013-07-11 09:32:00,73.0,68.0,29.90,NW,304,2.0,6.0,84,0.00,,,0.00,weatherlink.com 1.10,2013-07-11 13:32:00,
2013-07-11 09:47:00,73.9,69.0,29.90,NW,323,2.0,8.0,84,0.00,,,0.00,weatherlink.com 1.10,2013-07-11 13:47:00,
2013-07-11 10:17:00,75.0,68.0,29.91,NE,38,0.0,5.0,80,0.00,,,0.00,weatherlink.com 1.10,2013-07-11 14:17:00,
2013-07-11 10:32:00,76.2,69.0,29.91,NW,323,0.0,5.0,77,0.00,,,0.00,weatherlink.com 1.10,2013-07-11 14:32:00,
2013-07-11 10:47:00,78.4,71.0,29.90,East,84,0.0,5.0,77,0.00,,,0.00,weatherlink.com 1.10,2013-07-11 14:47:00,
2013-07-11 11:02:00,79.8,70.0,29.90,NW,312,2.0,5.0,72,0.00,,,0.00,weatherlink.com 1.10,2013-07-11 15:02:00,
2013-07-11 11:18:00,80.5,70.0,29.89,North,360,0.0,3.0,70,0.00,,,0.00,weatherlink.com 1.10,2013-07-11 15:18:00,
2013-07-11 11:33:00,81.0,71.0,29.89,NNW,329,5.0,5.0,71,0.00,,,0.00,weatherlink.com 1.10,2013-07-11 15:33:00,
2013-07-11 11:48:00,80.8,71.0,29.89,NW,311,0.0,4.0,71,0.00,,,0.00,weatherlink.com 1.10,2013-07-11 15:48:00,
2013-07-11 12:03:00,81.5,71.0,29.89,NW,311,2.0,5.0,70,0.00,,,0.00,weatherlink.com 1.10,2013-07-11 16:03:00,
2013-07-11 12:18:00,81.7,71.0,29.89,NW,311,0.0,1.0,71,0.00,,,0.00,weatherlink.com 1.10,2013-07-11 16:18:00,
2013-07-11 12:33:00,82.7,72.0,29.89,NNW,328,0.0,4.0,69,0.00,,,0.00,weatherlink.com 1.10,2013-07-11 16:33:00,
2013-07-11 12:48:00,83.6,72.0,29.89,NNE,17,0.0,5.0,67,0.00,,,0.00,weatherlink.com 1.10,2013-07-11 16:48:00,
2013-07-11 13:48:00,84.1,71.0,29.88,NNE,21,0.0,5.0,65,0.00,,,0.00,weatherlink.com 1.10,2013-07-11 17:48:00,
2013-07-11 14:03:00,85.2,70.0,29.88,NW,316,0.0,6.0,60,0.00,,,0.00,weatherlink.com 1.10,2013-07-11 18:03:00,
2013-07-11 14:18:00,85.1,69.0,29.88,NNW,346,0.0,4.0,59,0.00,,,0.00,weatherlink.com 1.10,2013-07-11 18:18:00,
2013-07-11 14:33:00,84.1,71.0,29.88,NNW,331,0.0,7.0,64,0.00,,,0.00,weatherlink.com 1.10,2013-07-11 18:33:00,
2013-07-11 15:03:00,85.8,72.0,29.87,ENE,73,0.0,5.0,63,0.00,,,0.00,weatherlink.com 1.10,2013-07-11 19:03:00,
2013-07-11 15:18:00,86.2,71.0,29.87,North,355,0.0,1.0,60,0.00,,,0.00,weatherlink.com 1.10,2013-07-11 19:18:00,
2013-07-11 15:33:00,86.5,70.0,29.86,NE,53,0.0,5.0,59,0.00,,,0.00,weatherlink.com 1.10,2013-07-11 19:33:00,
2013-07-11 15:48:00,86.1,68.0,29.86,NW,315,2.0,6.0,55,0.00,,,0.00,weatherlink.com 1.10,2013-07-11 19:48:00,
2013-07-11 16:18:00,85.0,70.0,29.86,NW,319,0.0,6.0,60,0.00,,,0.00,weatherlink.com 1.10,2013-07-11 20:18:00,
2013-07-11 16:48:00,85.3,68.0,29.86,NW,311,4.0,4.0,57,0.00,,,0.00,weatherlink.com 1.10,2013-07-11 20:48:00,
2013-07-11 17:03:00,84.6,69.0,29.86,NW,315,1.0,4.0,59,0.00,,,0.00,weatherlink.com 1.10,2013-07-11 21:03:00,
2013-07-11 17:18:00,85.2,68.0,29.86,NW,319,0.0,4.0,57,0.00,,,0.00,weatherlink.com 1.10,2013-07-11 21:18:00,
2013-07-11 17:33:00,85.2,69.0,29.86,WNW,296,0.0,2.0,58,0.00,,,0.00,weatherlink.com 1.10,2013-07-11 21:33:00,
2013-07-11 18:03:00,83.5,70.0,29.87,NW,321,0.0,0.0,63,0.00,,,0.00,weatherlink.com 1.10,2013-07-11 22:03:00,
2013-07-11 18:18:00,83.2,70.0,29.87,NW,321,0.0,1.0,64,0.00,,,0.00,weatherlink.com 1.10,2013-07-11 22:18:00,
2013-07-11 18:48:00,81.7,69.0,29.88,NW,321,0.0,1.0,65,0.00,,,0.00,weatherlink.com 1.10,2013-07-11 22:48:00,
2013-07-11 19:03:00,80.8,70.0,29.89,NW,321,0.0,0.0,70,0.00,,,0.00,weatherlink.com 1.10,2013-07-11 23:03:00,
2013-07-11 19:18:00,80.0,70.0,29.89,NW,321,0.0,0.0,71,0.00,,,0.00,weatherlink.com 1.10,2013-07-11 23:18:00,
2013-07-11 19:33:00,79.3,70.0,29.89,NW,321,0.0,0.0,73,0.00,,,0.00,weatherlink.com 1.10,2013-07-11 23:33:00,
2013-07-11 19:48:00,78.5,70.0,29.90,NW,321,0.0,0.0,74,0.00,,,0.00,weatherlink.com 1.10,2013-07-11 23:48:00,
2013-07-11 20:03:00,77.6,70.0,29.90,NW,321,0.0,0.0,76,0.00,,,0.00,weatherlink.com 1.10,2013-07-12 00:03:00,
2013-07-11 20:18:00,76.4,68.0,29.90,NW,321,0.0,0.0,76,0.00,,,0.00,weatherlink.com 1.10,2013-07-12 00:18:00,
2013-07-11 20:33:00,75.3,67.0,29.90,NW,321,0.0,0.0,76,0.00,,,0.00,weatherlink.com 1.10,2013-07-12 00:33:00,
2013-07-11 20:48:00,74.5,67.0,29.91,NW,321,0.0,0.0,77,0.00,,,0.00,weatherlink.com 1.10,2013-07-12 00:48:00,
2013-07-11 21:03:00,73.2,67.0,29.91,NW,321,0.0,1.0,81,0.00,,,0.00,weatherlink.com 1.10,2013-07-12 01:03:00,
2013-07-11 21:18:00,72.7,68.0,29.91,NW,321,0.0,1.0,84,0.00,,,0.00,weatherlink.com 1.10,2013-07-12 01:18:00,
2013-07-11 21:33:00,72.0,66.0,29.91,NW,321,0.0,1.0,82,0.00,,,0.00,weatherlink.com 1.10,2013-07-12 01:33:00,
2013-07-11 21:48:00,72.1,65.0,29.92,East,82,1.0,2.0,78,0.00,,,0.00,weatherlink.com 1.10,2013-07-12 01:48:00,
2013-07-11 22:03:00,73.1,64.0,29.92,East,94,0.0,3.0,73,0.00,,,0.00,weatherlink.com 1.10,2013-07-12 02:03:00,
2013-07-11 22:18:00,73.5,64.0,29.92,East,92,0.0,5.0,72,0.00,,,0.00,weatherlink.com 1.10,2013-07-12 02:18:00,
2013-07-11 22:33:00,73.4,64.0,29.92,East,90,0.0,1.0,73,0.00,,,0.00,weatherlink.com 1.10,2013-07-12 02:33:00,
2013-07-11 22:48:00,73.0,63.0,29.91,East,90,0.0,3.0,72,0.00,,,0.00,weatherlink.com 1.10,2013-07-12 02:48:00,
2013-07-11 23:03:00,72.8,63.0,29.91,East,89,0.0,3.0,72,0.00,,,0.00,weatherlink.com 1.10,2013-07-12 03:03:00,
2013-07-11 23:18:00,72.7,63.0,29.91,East,87,0.0,3.0,71,0.00,,,0.00,weatherlink.com 1.10,2013-07-12 03:18:00,